createdAt,value
2018-04-24T00:00:58.477Z,11.30
2018-04-24T00:03:25.983Z,11.17
2018-04-24T00:05:53.512Z,11.87
2018-04-24T00:08:21.061Z,11.27
2018-04-24T00:10:48.586Z,11.40
2018-04-24T00:13:16.148Z,11.13
2018-04-24T00:15:43.687Z,11.80
2018-04-24T00:18:11.365Z,12.30
2018-04-24T00:20:38.898Z,11.50
2018-04-24T00:23:06.419Z,11.43
2018-04-24T00:25:33.975Z,11.80
2018-04-24T00:28:01.509Z,12.07
2018-04-24T00:30:29.051Z,11.40
2018-04-24T00:32:56.628Z,11.23
2018-04-24T00:35:24.578Z,11.60
2018-04-24T00:37:52.122Z,11.10
2018-04-24T00:40:19.654Z,11.97
2018-04-24T00:42:47.478Z,11.43
2018-04-24T00:45:14.986Z,11.83
2018-04-24T00:47:42.511Z,11.60
2018-04-24T00:50:10.359Z,11.33
2018-04-24T00:52:38.128Z,11.60
2018-04-24T00:55:05.844Z,11.57
2018-04-24T00:57:33.378Z,11.50
2018-04-24T01:00:00.903Z,11.40
2018-04-24T01:02:28.446Z,11.33
2018-04-24T01:04:56.028Z,11.23
2018-04-24T01:07:23.794Z,12.47
2018-04-24T01:09:51.763Z,11.83
2018-04-24T01:12:19.527Z,12.53
2018-04-24T01:14:47.393Z,11.57
2018-04-24T01:17:15.195Z,11.73
2018-04-24T01:19:42.712Z,11.90
2018-04-24T01:22:10.375Z,11.80
2018-04-24T01:24:37.979Z,11.60
2018-04-24T01:27:05.596Z,11.43
2018-04-24T01:29:33.157Z,11.30
2018-04-24T01:32:00.871Z,11.70
2018-04-24T01:34:28.417Z,11.80
2018-04-24T01:36:56.353Z,11.93
2018-04-24T01:39:24.544Z,11.50
2018-04-24T01:41:52.082Z,12.47
2018-04-24T01:44:19.640Z,12.03
2018-04-24T01:46:47.200Z,11.13
2018-04-24T01:49:14.739Z,11.60
2018-04-24T01:51:42.331Z,11.40
2018-04-24T01:54:09.851Z,11.83
2018-04-24T01:56:37.376Z,12.60
2018-04-24T01:59:04.959Z,14.97
2018-04-24T02:01:32.509Z,11.50
2018-04-24T02:04:00.047Z,12.00
2018-04-24T02:06:27.580Z,11.30
2018-04-24T02:08:55.353Z,11.67
2018-04-24T02:11:23.086Z,12.10
2018-04-24T02:13:50.681Z,11.60
2018-04-24T02:16:18.574Z,12.23
2018-04-24T02:18:46.128Z,11.70
2018-04-24T02:21:13.717Z,12.70
2018-04-24T02:23:41.313Z,12.47
2018-04-24T02:26:08.913Z,11.23
2018-04-24T02:28:36.530Z,11.60
2018-04-24T02:31:04.052Z,12.00
2018-04-24T02:33:31.593Z,12.30
2018-04-24T02:35:59.112Z,11.97
2018-04-24T02:38:27.044Z,11.63
2018-04-24T02:40:54.575Z,11.80
2018-04-24T02:43:22.081Z,11.00
2018-04-24T02:45:49.702Z,11.10
2018-04-24T02:48:17.225Z,12.43
2018-04-24T02:50:44.752Z,11.40
2018-04-24T02:53:12.393Z,12.43
2018-04-24T02:55:39.906Z,11.37
2018-04-24T02:58:07.816Z,11.47
2018-04-24T03:00:35.615Z,12.30
2018-04-24T03:03:03.161Z,11.80
2018-04-24T03:05:30.682Z,11.20
2018-04-24T03:07:58.207Z,12.40
2018-04-24T03:10:25.752Z,11.90
2018-04-24T03:12:53.295Z,11.60
2018-04-24T03:15:21.142Z,11.50
2018-04-24T03:17:48.708Z,12.10
2018-04-24T03:20:16.244Z,11.80
2018-04-24T03:22:43.772Z,11.83
2018-04-24T03:25:11.311Z,11.50
2018-04-24T03:27:38.844Z,12.57
2018-04-24T03:30:06.433Z,11.87
2018-04-24T03:32:33.946Z,11.40
2018-04-24T03:35:01.487Z,11.97
2018-04-24T03:37:29.293Z,12.20
2018-04-24T03:39:56.838Z,11.93
2018-04-24T03:42:24.622Z,11.70
2018-04-24T03:44:52.156Z,11.30
2018-04-24T03:47:19.684Z,11.70
2018-04-24T03:49:47.206Z,11.83
2018-04-24T03:52:15.084Z,12.10
2018-04-24T03:54:43.011Z,11.50
2018-04-24T03:57:10.584Z,12.13
2018-04-24T03:59:37.457Z,12.60
2018-04-24T04:02:05.017Z,12.33
2018-04-24T04:04:32.531Z,12.93
2018-04-24T04:07:00.057Z,11.53
2018-04-24T04:09:27.576Z,12.70
2018-04-24T04:11:55.087Z,12.37
2018-04-24T04:14:22.633Z,13.00
2018-04-24T04:16:50.471Z,11.97
2018-04-24T04:19:29.670Z,12.00
2018-04-24T04:22:09.028Z,12.33
2018-04-24T04:24:40.186Z,12.00
2018-04-24T04:27:07.950Z,12.40
2018-04-24T04:29:36.376Z,12.43
2018-04-24T04:32:03.915Z,12.47
2018-04-24T04:34:31.426Z,11.97
2018-04-24T04:36:58.967Z,13.30
2018-04-24T04:39:26.500Z,12.87
2018-04-24T04:41:54.053Z,12.40
2018-04-24T04:44:21.599Z,13.73
2018-04-24T04:46:49.118Z,13.53
2018-04-24T04:49:16.649Z,13.07
2018-04-24T04:51:44.147Z,13.50
2018-04-24T04:54:11.748Z,14.13
2018-04-24T04:56:39.264Z,13.23
2018-04-24T04:59:06.799Z,13.40
2018-04-24T05:01:34.323Z,13.00
2018-04-24T05:04:01.825Z,15.00
2018-04-24T05:06:29.382Z,13.50
2018-04-24T05:08:56.915Z,13.53
2018-04-24T05:11:24.438Z,13.17
2018-04-24T05:13:52.007Z,13.40
2018-04-24T05:16:19.566Z,13.50
2018-04-24T05:18:47.547Z,14.17
2018-04-24T05:21:15.164Z,13.43
2018-04-24T05:23:42.697Z,13.70
2018-04-24T05:26:10.213Z,12.83
2018-04-24T05:28:38.003Z,13.63
2018-04-24T05:31:05.558Z,13.87
2018-04-24T05:33:33.100Z,13.43
2018-04-24T05:36:00.878Z,14.40
2018-04-24T05:38:28.434Z,13.77
2018-04-24T05:40:55.961Z,13.73
2018-04-24T05:43:23.517Z,13.70
2018-04-24T05:45:51.037Z,14.43
2018-04-24T05:48:18.561Z,13.83
2018-04-24T05:50:46.341Z,13.83
2018-04-24T05:53:13.917Z,14.77
2018-04-24T05:55:41.562Z,13.90
2018-04-24T05:58:09.122Z,14.33
2018-04-24T06:00:36.743Z,13.53
2018-04-24T06:03:04.427Z,13.90
2018-04-24T06:05:31.929Z,13.90
2018-04-24T06:08:00.001Z,14.30
2018-04-24T06:10:28.560Z,14.93
2018-04-24T06:12:56.436Z,13.73
2018-04-24T06:15:24.021Z,14.83
2018-04-24T06:17:51.999Z,14.90
2018-04-24T06:20:19.935Z,14.50
2018-04-24T06:22:49.561Z,13.90
2018-04-24T06:25:17.753Z,14.73
2018-04-24T06:27:49.620Z,14.83
2018-04-24T06:30:17.322Z,15.27
2018-04-24T06:32:45.197Z,14.10
2018-04-24T06:35:12.783Z,14.67
2018-04-24T06:37:40.369Z,14.80
2018-04-24T06:40:07.946Z,14.20
2018-04-24T06:42:35.763Z,15.47
2018-04-24T06:45:03.742Z,15.03
2018-04-24T06:47:31.328Z,14.63
2018-04-24T06:49:58.838Z,15.43
2018-04-24T06:52:26.648Z,14.63
2018-04-24T06:54:54.418Z,15.40
2018-04-24T06:57:22.195Z,15.17
2018-04-24T06:59:49.709Z,14.10
2018-04-24T07:02:17.227Z,14.77
2018-04-24T07:04:44.759Z,14.90
2018-04-24T07:07:12.303Z,15.00
2018-04-24T07:09:40.038Z,15.07
2018-04-24T07:12:07.589Z,15.27
2018-04-24T07:14:35.096Z,16.73
2018-04-24T07:17:02.653Z,17.47
2018-04-24T07:19:31.337Z,17.20
2018-04-24T07:21:59.308Z,16.90
2018-04-24T07:24:26.864Z,15.53
2018-04-24T07:26:54.427Z,17.37
2018-04-24T07:29:22.059Z,17.10
2018-04-24T07:31:50.057Z,17.10
2018-04-24T07:34:17.898Z,19.27
2018-04-24T07:36:45.477Z,19.37
2018-04-24T07:39:13.030Z,18.73
2018-04-24T07:41:40.771Z,18.50
2018-04-24T07:44:08.582Z,20.47
2018-04-24T07:46:36.227Z,18.73
2018-04-24T07:49:03.681Z,19.10
2018-04-24T07:51:31.333Z,19.93
2018-04-24T07:54:02.288Z,21.10
2018-04-24T07:56:29.878Z,20.00
2018-04-24T07:58:57.997Z,20.33
2018-04-24T08:01:25.524Z,21.57
2018-04-24T08:03:53.080Z,20.70
2018-04-24T08:06:20.630Z,23.43
2018-04-24T08:08:48.145Z,22.47
2018-04-24T08:11:15.682Z,22.00
2018-04-24T08:13:43.193Z,21.33
2018-04-24T08:16:10.697Z,22.30
2018-04-24T08:18:38.293Z,23.80
2018-04-24T08:21:05.859Z,21.80
2018-04-24T08:23:33.452Z,22.10
2018-04-24T08:26:00.980Z,22.60
2018-04-24T08:28:28.490Z,22.07
2018-04-24T08:30:56.026Z,21.30
2018-04-24T08:33:23.789Z,24.40
2018-04-24T08:35:51.359Z,22.97
2018-04-24T08:38:18.873Z,21.67
2018-04-24T08:40:46.442Z,21.10
2018-04-24T08:43:13.996Z,21.53
2018-04-24T08:45:41.510Z,17.63
2018-04-24T08:48:09.085Z,17.00
2018-04-24T08:50:36.608Z,17.53
2018-04-24T08:53:04.118Z,17.37
2018-04-24T08:55:31.673Z,17.87
2018-04-24T08:57:59.179Z,19.43
2018-04-24T09:00:26.725Z,19.77
2018-04-24T09:02:54.518Z,20.50
2018-04-24T09:05:22.238Z,17.77
2018-04-24T09:07:49.942Z,15.60
2018-04-24T09:10:17.548Z,14.20
2018-04-24T09:12:45.127Z,12.90
2018-04-24T09:15:12.717Z,12.57
2018-04-24T09:17:40.245Z,12.03
2018-04-24T09:20:07.923Z,12.37
2018-04-24T09:22:35.425Z,12.90
2018-04-24T09:25:02.974Z,13.13
2018-04-24T09:27:30.491Z,12.77
2018-04-24T09:30:03.936Z,13.30
2018-04-24T09:32:31.495Z,13.10
2018-04-24T09:34:59.026Z,12.57
2018-04-24T09:37:26.590Z,12.00
2018-04-24T09:39:54.193Z,13.53
2018-04-24T09:42:21.752Z,12.90
2018-04-24T09:44:49.273Z,12.13
2018-04-24T09:47:16.869Z,13.13
2018-04-24T09:49:44.398Z,12.60
2018-04-24T09:52:11.915Z,12.37
2018-04-24T09:54:39.468Z,12.43
2018-04-24T09:57:07.027Z,13.07
2018-04-24T09:59:34.558Z,14.33
2018-04-24T10:02:02.095Z,12.83
2018-04-24T10:04:29.882Z,14.00
2018-04-24T10:06:57.454Z,14.70
2018-04-24T10:09:25.091Z,14.40
2018-04-24T10:11:52.615Z,16.53
2018-04-24T10:14:20.164Z,15.43
2018-04-24T10:16:47.699Z,15.17
2018-04-24T10:19:15.551Z,14.87
2018-04-24T10:21:43.121Z,14.40
2018-04-24T10:24:10.639Z,15.17
2018-04-24T10:26:38.453Z,15.13
2018-04-24T10:29:05.956Z,14.40
2018-04-24T10:31:33.521Z,14.70
2018-04-24T10:34:01.106Z,14.30
2018-04-24T10:36:28.988Z,14.03
2018-04-24T10:38:57.057Z,14.83
2018-04-24T10:41:24.950Z,13.80
2018-04-24T10:43:52.722Z,14.23
2018-04-24T10:46:20.359Z,14.47
2018-04-24T10:48:48.221Z,14.70
2018-04-24T10:51:16.518Z,14.90
2018-04-24T10:53:44.055Z,13.90
2018-04-24T10:56:11.642Z,14.33
2018-04-24T10:58:39.183Z,14.70
2018-04-24T11:01:06.712Z,14.63
2018-04-24T11:03:34.285Z,14.50
2018-04-24T11:06:01.800Z,14.43
2018-04-24T11:08:29.360Z,14.83
2018-04-24T11:10:56.878Z,16.00
2018-04-24T11:13:24.394Z,15.40
2018-04-24T11:15:51.933Z,14.93
2018-04-24T11:18:19.470Z,15.30
2018-04-24T11:20:46.996Z,15.30
2018-04-24T11:23:14.605Z,15.80
2018-04-24T11:25:42.139Z,15.23
2018-04-24T11:28:09.885Z,16.40
2018-04-24T11:30:37.427Z,16.27
2018-04-24T11:33:04.958Z,16.23
2018-04-24T11:35:32.511Z,16.30
2018-04-24T11:38:00.060Z,16.47
2018-04-24T11:40:27.582Z,15.80
2018-04-24T11:42:55.159Z,15.97
2018-04-24T11:45:23.343Z,15.30
2018-04-24T11:47:50.893Z,14.60
2018-04-24T11:50:18.461Z,14.00
2018-04-24T11:52:46.026Z,13.03
2018-04-24T11:55:13.537Z,14.10
2018-04-24T11:57:41.157Z,13.67
2018-04-24T12:00:08.719Z,13.83
2018-04-24T12:02:36.261Z,14.70
2018-04-24T12:05:03.823Z,13.70
2018-04-24T12:07:31.423Z,14.10
2018-04-24T12:09:59.021Z,13.60
2018-04-24T12:12:26.829Z,14.40
2018-04-24T12:14:54.365Z,14.27
2018-04-24T12:17:21.938Z,14.00
2018-04-24T12:19:50.729Z,13.20
2018-04-24T12:22:18.339Z,13.43
2018-04-24T12:24:45.882Z,12.57
2018-04-24T12:27:13.435Z,11.27
2018-04-24T12:29:41.231Z,11.40
2018-04-24T12:32:08.756Z,10.60
2018-04-24T12:34:36.332Z,11.07
2018-04-24T12:37:03.872Z,10.80
2018-04-24T12:39:31.402Z,11.03
2018-04-24T12:41:58.946Z,11.50
2018-04-24T12:44:26.749Z,11.87
2018-04-24T12:46:54.350Z,11.17
2018-04-24T12:49:21.958Z,11.03
2018-04-24T12:51:49.588Z,12.33
2018-04-24T12:54:17.218Z,11.60
2018-04-24T12:56:45.160Z,11.20
2018-04-24T12:59:12.759Z,12.40
2018-04-24T13:01:41.186Z,12.00
2018-04-24T13:04:08.731Z,12.47
2018-04-24T13:06:36.417Z,11.83
2018-04-24T13:09:03.965Z,11.67
2018-04-24T13:11:31.508Z,11.80
2018-04-24T13:13:59.276Z,12.13
2018-04-24T13:16:27.172Z,12.87
2018-04-24T13:18:55.068Z,11.87
2018-04-24T13:21:22.596Z,12.60
2018-04-24T13:23:50.161Z,12.10
2018-04-24T13:26:17.710Z,12.23
2018-04-24T13:28:45.615Z,12.50
2018-04-24T13:31:13.224Z,12.53
2018-04-24T13:33:40.730Z,12.30
2018-04-24T13:36:08.316Z,11.67
2018-04-24T13:38:36.164Z,12.23
2018-04-24T13:41:03.982Z,12.70
2018-04-24T13:43:31.527Z,12.60
2018-04-24T13:45:59.539Z,12.70
2018-04-24T13:48:27.102Z,14.60
2018-04-24T13:50:54.697Z,13.23
2018-04-24T13:53:22.301Z,12.53
2018-04-24T13:55:49.851Z,12.23
2018-04-24T13:58:17.421Z,12.30
2018-04-24T14:00:45.182Z,13.10
2018-04-24T14:03:12.749Z,13.17
2018-04-24T14:05:40.322Z,12.37
2018-04-24T14:08:07.897Z,13.63
2018-04-24T14:10:35.453Z,13.27
2018-04-24T14:13:02.969Z,13.50
2018-04-24T14:15:30.560Z,13.90
2018-04-24T14:17:58.077Z,14.00
2018-04-24T14:20:25.658Z,13.20
2018-04-24T14:22:54.074Z,12.47
2018-04-24T14:25:21.635Z,13.13
2018-04-24T14:27:51.691Z,14.00
2018-04-24T14:30:19.613Z,12.30
2018-04-24T14:32:48.574Z,13.23
2018-04-24T14:35:16.529Z,12.90
2018-04-24T14:37:44.388Z,13.10
2018-04-24T14:40:19.758Z,12.40
2018-04-24T14:42:48.003Z,13.10
2018-04-24T14:45:17.363Z,13.10
2018-04-24T14:47:45.042Z,12.80
2018-04-24T14:50:12.666Z,12.57
2018-04-24T14:52:40.283Z,12.40
2018-04-24T14:55:07.880Z,13.50
2018-04-24T14:57:35.482Z,13.50
2018-04-24T15:00:03.041Z,12.67
2018-04-24T15:02:30.601Z,13.23
2018-04-24T15:04:58.241Z,13.57
2018-04-24T15:07:25.766Z,13.90
2018-04-24T15:09:53.343Z,12.77
2018-04-24T15:12:20.869Z,13.10
2018-04-24T15:14:48.391Z,13.37
2018-04-24T15:17:15.938Z,13.33
2018-04-24T15:19:43.579Z,14.00
2018-04-24T15:22:11.147Z,13.30
2018-04-24T15:24:39.555Z,14.07
2018-04-24T15:27:07.109Z,13.40
2018-04-24T15:29:34.941Z,13.40
2018-04-24T15:32:02.476Z,13.33
2018-04-24T15:34:30.069Z,13.37
2018-04-24T15:36:57.621Z,13.53
2018-04-24T15:39:25.206Z,14.37
2018-04-24T15:41:52.787Z,13.00
2018-04-24T15:44:20.570Z,13.70
2018-04-24T15:46:48.109Z,13.23
2018-04-24T15:49:15.631Z,13.40
2018-04-24T15:51:43.195Z,13.93
2018-04-24T15:54:11.160Z,13.70
2018-04-24T15:56:38.752Z,13.33
2018-04-24T15:59:06.663Z,13.30
2018-04-24T16:01:34.230Z,14.07
2018-04-24T16:04:02.054Z,13.40
2018-04-24T16:06:29.636Z,13.23
2018-04-24T16:08:57.142Z,12.90
2018-04-24T16:11:24.701Z,13.03
2018-04-24T16:13:52.601Z,13.00
2018-04-24T16:16:20.154Z,14.00
2018-04-24T16:18:47.685Z,14.00
2018-04-24T16:21:15.274Z,14.00
2018-04-24T16:23:43.885Z,12.97
2018-04-24T16:26:11.475Z,13.47
2018-04-24T16:28:39.032Z,13.80
2018-04-24T16:31:06.574Z,13.70
2018-04-24T16:33:34.100Z,13.93
2018-04-24T16:36:01.630Z,12.83
2018-04-24T16:38:29.175Z,12.90
2018-04-24T16:40:56.784Z,13.90
2018-04-24T16:43:24.304Z,13.50
2018-04-24T16:45:51.862Z,13.50
2018-04-24T16:48:19.395Z,13.07
2018-04-24T16:50:47.165Z,13.30
2018-04-24T16:53:14.706Z,13.60
2018-04-24T16:55:42.375Z,12.93
2018-04-24T16:58:09.973Z,13.10
2018-04-24T17:00:37.564Z,14.57
2018-04-24T17:03:05.436Z,13.80
2018-04-24T17:05:33.532Z,13.53
2018-04-24T17:08:01.070Z,13.07
2018-04-24T17:10:28.684Z,12.83
2018-04-24T17:12:56.597Z,13.20
2018-04-24T17:15:24.426Z,13.53
2018-04-24T17:17:52.019Z,13.30
2018-04-24T17:20:19.568Z,13.70
2018-04-24T17:22:47.136Z,13.30
2018-04-24T17:25:14.649Z,13.43
2018-04-24T17:27:42.209Z,13.30
2018-04-24T17:30:10.667Z,12.43
2018-04-24T17:32:38.329Z,13.20
2018-04-24T17:35:05.888Z,13.63
2018-04-24T17:37:33.754Z,12.83
2018-04-24T17:40:02.024Z,13.03
2018-04-24T17:42:29.585Z,13.10
2018-04-24T17:44:57.113Z,13.60
2018-04-24T17:47:24.629Z,12.97
2018-04-24T17:49:52.313Z,14.97
2018-04-24T17:52:19.858Z,13.80
2018-04-24T17:54:47.429Z,12.50
2018-04-24T17:57:15.135Z,13.37
2018-04-24T17:59:42.753Z,13.83
2018-04-24T18:02:10.416Z,14.83
2018-04-24T18:04:38.474Z,13.23
2018-04-24T18:07:06.121Z,13.70
2018-04-24T18:09:33.746Z,12.87
2018-04-24T18:12:01.288Z,13.70
2018-04-24T18:14:28.837Z,13.40
2018-04-24T18:16:56.406Z,13.30
2018-04-24T18:19:23.938Z,13.17
2018-04-24T18:21:51.516Z,13.10
2018-04-24T18:24:19.070Z,12.93
2018-04-24T18:26:46.842Z,13.30
2018-04-24T18:29:14.437Z,13.50
2018-04-24T18:31:42.121Z,12.40
2018-04-24T18:34:09.705Z,12.47
2018-04-24T18:36:37.251Z,12.70
2018-04-24T18:39:05.008Z,12.63
2018-04-24T18:41:32.529Z,13.00
2018-04-24T18:44:00.059Z,13.63
2018-04-24T18:46:27.632Z,13.13
2018-04-24T18:48:55.171Z,12.67
2018-04-24T18:51:22.729Z,13.57
2018-04-24T18:53:50.415Z,12.60
2018-04-24T18:56:17.951Z,13.90
2018-04-24T18:58:45.555Z,12.70
2018-04-24T19:01:13.249Z,13.17
2018-04-24T19:03:40.803Z,13.23
2018-04-24T19:06:08.339Z,12.83
2018-04-24T19:08:35.917Z,12.77
2018-04-24T19:11:05.457Z,13.10
2018-04-24T19:13:34.116Z,13.40
2018-04-24T19:16:01.809Z,13.20
2018-04-24T19:18:34.819Z,14.00
2018-04-24T19:21:02.469Z,21.50
2018-04-24T19:23:30.069Z,13.50
2018-04-24T19:25:58.631Z,12.90
2018-04-24T19:28:26.403Z,13.73
2018-04-24T19:30:53.948Z,13.17
2018-04-24T19:33:21.472Z,13.00
2018-04-24T19:35:49.117Z,13.50
2018-04-24T19:38:16.652Z,14.30
2018-04-24T19:40:59.053Z,13.70
2018-04-24T19:43:30.702Z,13.40
2018-04-24T19:45:58.405Z,13.73
2018-04-24T19:48:31.445Z,13.30
2018-04-24T19:50:58.991Z,12.83
2018-04-24T19:53:26.539Z,13.67
2018-04-24T19:55:54.150Z,14.07
2018-04-24T19:58:22.763Z,13.30
2018-04-24T20:00:50.799Z,14.17
2018-04-24T20:03:18.591Z,14.00
2018-04-24T20:05:48.994Z,14.27
2018-04-24T20:08:20.344Z,14.00
2018-04-24T20:10:48.811Z,15.03
2018-04-24T20:13:16.326Z,14.30
2018-04-24T20:15:43.857Z,14.00
2018-04-24T20:18:15.158Z,13.80
2018-04-24T20:20:47.598Z,15.33
2018-04-24T20:23:15.596Z,14.97
2018-04-24T20:25:44.562Z,14.47
2018-04-24T20:28:12.354Z,14.73
2018-04-24T20:30:40.008Z,14.57
2018-04-24T20:33:08.407Z,14.77
2018-04-24T20:35:38.313Z,15.40
2018-04-24T20:38:06.041Z,15.50
2018-04-24T20:40:39.868Z,15.07
2018-04-24T20:43:07.576Z,14.60
2018-04-24T20:45:37.416Z,15.07
2018-04-24T20:48:06.077Z,16.37
2018-04-24T20:50:36.958Z,14.47
2018-04-24T20:53:05.836Z,14.43
2018-04-24T20:55:33.561Z,14.97
2018-04-24T20:58:03.421Z,15.17
2018-04-24T21:00:31.698Z,14.50
2018-04-24T21:02:59.386Z,15.10
2018-04-24T21:05:26.975Z,15.87
2018-04-24T21:07:54.594Z,14.93
2018-04-24T21:10:22.135Z,15.47
2018-04-24T21:12:49.749Z,15.80
2018-04-24T21:15:17.434Z,16.63
2018-04-24T21:17:45.081Z,15.00
2018-04-24T21:20:12.845Z,14.77
2018-04-24T21:22:40.491Z,16.03
2018-04-24T21:25:08.374Z,15.10
2018-04-24T21:27:35.935Z,16.53
2018-04-24T21:30:03.492Z,16.63
2018-04-24T21:32:31.342Z,15.63
2018-04-24T21:34:59.154Z,16.37
2018-04-24T21:37:26.775Z,16.70
2018-04-24T21:39:54.324Z,16.73
2018-04-24T21:42:21.875Z,16.10
2018-04-24T21:44:49.402Z,15.83
2018-04-24T21:47:17.020Z,16.17
2018-04-24T21:49:44.556Z,16.27
2018-04-24T21:52:12.124Z,15.90
2018-04-24T21:54:39.656Z,16.13
2018-04-24T21:57:07.207Z,16.50
2018-04-24T21:59:35.128Z,16.70
2018-04-24T22:02:02.683Z,16.30
2018-04-24T22:04:30.255Z,16.07
2018-04-24T22:06:57.853Z,16.50
2018-04-24T22:09:25.372Z,17.53
2018-04-24T22:11:52.920Z,17.27
2018-04-24T22:14:20.553Z,17.83
2018-04-24T22:16:48.081Z,17.80
2018-04-24T22:19:15.645Z,17.00
2018-04-24T22:21:43.228Z,16.27
2018-04-24T22:24:10.776Z,17.67
2018-04-24T22:26:38.325Z,17.47
2018-04-24T22:29:05.842Z,17.73
2018-04-24T22:31:33.731Z,17.17
2018-04-24T22:34:01.295Z,18.17
2018-04-24T22:36:29.150Z,18.20
2018-04-24T22:38:56.685Z,18.50
2018-04-24T22:41:24.224Z,17.67
2018-04-24T22:43:51.742Z,17.67
2018-04-24T22:46:19.284Z,17.63
2018-04-24T22:48:47.184Z,17.30
2018-04-24T22:51:15.026Z,18.73
2018-04-24T22:53:42.812Z,18.27
2018-04-24T22:56:10.382Z,17.97
2018-04-24T22:58:37.967Z,18.47
2018-04-24T23:01:05.526Z,18.60
2018-04-24T23:03:33.082Z,18.37
2018-04-24T23:06:00.655Z,19.07
2018-04-24T23:08:28.178Z,20.43
2018-04-24T23:11:07.508Z,18.97
2018-04-24T23:13:46.797Z,19.00
2018-04-24T23:16:26.106Z,19.30
2018-04-24T23:19:05.472Z,19.67
2018-04-24T23:21:32.474Z,19.63
2018-04-24T23:23:59.993Z,19.00
2018-04-24T23:26:28.550Z,19.20
2018-04-24T23:28:56.111Z,20.07
2018-04-24T23:31:23.641Z,19.17
2018-04-24T23:33:51.158Z,20.03
2018-04-24T23:36:18.806Z,20.13
2018-04-24T23:38:46.331Z,20.20
2018-04-24T23:41:14.328Z,20.50
2018-04-24T23:43:42.188Z,20.03
2018-04-24T23:46:09.701Z,20.10
2018-04-24T23:48:37.235Z,20.00
2018-04-24T23:51:04.788Z,20.93
2018-04-24T23:53:32.293Z,20.07
2018-04-24T23:55:59.830Z,20.30
2018-04-24T23:58:27.393Z,20.30
